sensor_id;sensor_type;location;lat;lon;timestamp;P1;durP1;ratioP1;P2;durP2;ratioP2
61673;SDS011;47573;43.832;5.974;2023-02-18T00:03:33;572.60;;;413.98;;
61673;SDS011;47573;43.832;5.974;2023-02-18T00:10:14;583.33;;;420.42;;
61673;SDS011;47573;43.832;5.974;2023-02-18T00:16:54;579.90;;;420.33;;
61673;SDS011;47573;43.832;5.974;2023-02-18T00:23:36;573.53;;;406.07;;
61673;SDS011;47573;43.832;5.974;2023-02-18T00:30:17;573.28;;;405.60;;
61673;SDS011;47573;43.832;5.974;2023-02-18T00:36:57;570.90;;;401.20;;
61673;SDS011;47573;43.832;5.974;2023-02-18T00:43:39;563.13;;;396.27;;
61673;SDS011;47573;43.832;5.974;2023-02-18T00:50:20;559.72;;;385.20;;
61673;SDS011;47573;43.832;5.974;2023-02-18T00:57:01;551.08;;;384.48;;
61673;SDS011;47573;43.832;5.974;2023-02-18T01:03:43;546.83;;;374.58;;
61673;SDS011;47573;43.832;5.974;2023-02-18T01:10:24;537.92;;;369.02;;
61673;SDS011;47573;43.832;5.974;2023-02-18T01:17:04;533.92;;;358.80;;
61673;SDS011;47573;43.832;5.974;2023-02-18T01:23:46;524.25;;;353.52;;
61673;SDS011;47573;43.832;5.974;2023-02-18T01:30:27;517.50;;;346.40;;
61673;SDS011;47573;43.832;5.974;2023-02-18T01:37:07;512.87;;;336.73;;
61673;SDS011;47573;43.832;5.974;2023-02-18T01:50:52;503.33;;;326.05;;
61673;SDS011;47573;43.832;5.974;2023-02-18T01:57:36;502.52;;;322.48;;
61673;SDS011;47573;43.832;5.974;2023-02-18T02:04:19;486.35;;;311.00;;
61673;SDS011;47573;43.832;5.974;2023-02-18T02:11:11;484.23;;;309.03;;
61673;SDS011;47573;43.832;5.974;2023-02-18T02:25:15;472.38;;;298.95;;
61673;SDS011;47573;43.832;5.974;2023-02-18T02:32:12;474.33;;;299.27;;
61673;SDS011;47573;43.832;5.974;2023-02-18T02:39:20;473.02;;;294.55;;
61673;SDS011;47573;43.832;5.974;2023-02-18T02:46:10;453.40;;;285.48;;
61673;SDS011;47573;43.832;5.974;2023-02-18T02:52:56;449.80;;;282.38;;
61673;SDS011;47573;43.832;5.974;2023-02-18T02:59:44;448.88;;;279.42;;
61673;SDS011;47573;43.832;5.974;2023-02-18T03:06:35;433.58;;;272.17;;
61673;SDS011;47573;43.832;5.974;2023-02-18T03:13:42;438.27;;;266.52;;
61673;SDS011;47573;43.832;5.974;2023-02-18T03:20:45;431.08;;;263.05;;
61673;SDS011;47573;43.832;5.974;2023-02-18T03:27:31;419.88;;;259.92;;
61673;SDS011;47573;43.832;5.974;2023-02-18T03:34:17;406.55;;;250.90;;
61673;SDS011;47573;43.832;5.974;2023-02-18T03:41:04;407.65;;;249.20;;
61673;SDS011;47573;43.832;5.974;2023-02-18T03:47:45;396.45;;;242.02;;
61673;SDS011;47573;43.832;5.974;2023-02-18T03:54:25;394.30;;;240.32;;
61673;SDS011;47573;43.832;5.974;2023-02-18T04:01:07;388.20;;;235.10;;
61673;SDS011;47573;43.832;5.974;2023-02-18T04:07:48;379.25;;;225.75;;
61673;SDS011;47573;43.832;5.974;2023-02-18T04:14:28;363.03;;;220.57;;
61673;SDS011;47573;43.832;5.974;2023-02-18T04:21:11;363.33;;;216.70;;
61673;SDS011;47573;43.832;5.974;2023-02-18T04:27:51;358.30;;;212.25;;
61673;SDS011;47573;43.832;5.974;2023-02-18T04:34:32;336.07;;;199.27;;
61673;SDS011;47573;43.832;5.974;2023-02-18T04:41:13;338.93;;;197.73;;
61673;SDS011;47573;43.832;5.974;2023-02-18T04:47:54;326.30;;;189.55;;
61673;SDS011;47573;43.832;5.974;2023-02-18T04:54:34;313.85;;;181.57;;
61673;SDS011;47573;43.832;5.974;2023-02-18T05:01:16;306.57;;;175.90;;
61673;SDS011;47573;43.832;5.974;2023-02-18T05:07:57;302.40;;;173.88;;
61673;SDS011;47573;43.832;5.974;2023-02-18T05:14:37;294.57;;;166.57;;
61673;SDS011;47573;43.832;5.974;2023-02-18T05:21:19;287.50;;;161.93;;
61673;SDS011;47573;43.832;5.974;2023-02-18T05:27:59;288.92;;;158.68;;
61673;SDS011;47573;43.832;5.974;2023-02-18T05:34:40;279.20;;;158.00;;
61673;SDS011;47573;43.832;5.974;2023-02-18T05:41:22;276.83;;;153.40;;
61673;SDS011;47573;43.832;5.974;2023-02-18T05:48:03;274.48;;;151.35;;
61673;SDS011;47573;43.832;5.974;2023-02-18T05:54:43;273.40;;;150.98;;
61673;SDS011;47573;43.832;5.974;2023-02-18T06:01:25;261.63;;;142.47;;
61673;SDS011;47573;43.832;5.974;2023-02-18T06:08:06;265.77;;;142.50;;
61673;SDS011;47573;43.832;5.974;2023-02-18T06:14:46;247.70;;;136.53;;
61673;SDS011;47573;43.832;5.974;2023-02-18T06:21:28;248.20;;;137.45;;
61673;SDS011;47573;43.832;5.974;2023-02-18T06:28:09;238.13;;;132.57;;
61673;SDS011;47573;43.832;5.974;2023-02-18T06:34:49;242.35;;;131.23;;
61673;SDS011;47573;43.832;5.974;2023-02-18T06:41:31;249.93;;;135.30;;
61673;SDS011;47573;43.832;5.974;2023-02-18T06:48:11;245.07;;;133.38;;
61673;SDS011;47573;43.832;5.974;2023-02-18T06:54:52;456.60;;;205.75;;
61673;SDS011;47573;43.832;5.974;2023-02-18T07:01:34;267.47;;;141.30;;
61673;SDS011;47573;43.832;5.974;2023-02-18T07:08:15;247.57;;;136.32;;
61673;SDS011;47573;43.832;5.974;2023-02-18T07:14:56;238.38;;;133.88;;
61673;SDS011;47573;43.832;5.974;2023-02-18T07:21:38;207.20;;;123.27;;
61673;SDS011;47573;43.832;5.974;2023-02-18T07:28:18;393.60;;;172.88;;
61673;SDS011;47573;43.832;5.974;2023-02-18T07:34:59;210.77;;;125.40;;
61673;SDS011;47573;43.832;5.974;2023-02-18T07:41:41;299.92;;;148.55;;
61673;SDS011;47573;43.832;5.974;2023-02-18T07:48:21;228.82;;;128.60;;
61673;SDS011;47573;43.832;5.974;2023-02-18T07:55:02;192.90;;;115.47;;
61673;SDS011;47573;43.832;5.974;2023-02-18T08:01:44;216.07;;;118.55;;
61673;SDS011;47573;43.832;5.974;2023-02-18T08:08:26;206.75;;;119.20;;
61673;SDS011;47573;43.832;5.974;2023-02-18T08:15:07;187.47;;;111.93;;
61673;SDS011;47573;43.832;5.974;2023-02-18T08:21:50;262.10;;;128.98;;
61673;SDS011;47573;43.832;5.974;2023-02-18T08:28:30;220.13;;;118.07;;
61673;SDS011;47573;43.832;5.974;2023-02-18T08:35:12;113.43;;;66.33;;
61673;SDS011;47573;43.832;5.974;2023-02-18T08:41:54;246.38;;;92.40;;
61673;SDS011;47573;43.832;5.974;2023-02-18T08:48:36;95.85;;;55.35;;
61673;SDS011;47573;43.832;5.974;2023-02-18T08:55:16;91.25;;;54.20;;
61673;SDS011;47573;43.832;5.974;2023-02-18T09:01:58;101.97;;;61.17;;
61673;SDS011;47573;43.832;5.974;2023-02-18T09:08:39;105.53;;;62.20;;
61673;SDS011;47573;43.832;5.974;2023-02-18T09:15:19;101.63;;;58.73;;
61673;SDS011;47573;43.832;5.974;2023-02-18T09:22:01;102.47;;;59.67;;
61673;SDS011;47573;43.832;5.974;2023-02-18T09:28:42;100.07;;;59.60;;
61673;SDS011;47573;43.832;5.974;2023-02-18T09:35:22;101.78;;;60.65;;
61673;SDS011;47573;43.832;5.974;2023-02-18T09:42:05;100.73;;;59.43;;
61673;SDS011;47573;43.832;5.974;2023-02-18T09:48:50;90.75;;;49.65;;
61673;SDS011;47573;43.832;5.974;2023-02-18T09:55:32;69.15;;;40.45;;
61673;SDS011;47573;43.832;5.974;2023-02-18T10:02:15;665.57;;;291.47;;
61673;SDS011;47573;43.832;5.974;2023-02-18T10:08:55;214.95;;;74.10;;
61673;SDS011;47573;43.832;5.974;2023-02-18T10:15:41;88.22;;;44.53;;
61673;SDS011;47573;43.832;5.974;2023-02-18T10:22:24;53.47;;;29.95;;
61673;SDS011;47573;43.832;5.974;2023-02-18T10:29:08;86.30;;;38.42;;
61673;SDS011;47573;43.832;5.974;2023-02-18T10:35:55;55.30;;;30.08;;
61673;SDS011;47573;43.832;5.974;2023-02-18T10:42:46;65.22;;;35.78;;
61673;SDS011;47573;43.832;5.974;2023-02-18T10:49:41;65.28;;;36.83;;
61673;SDS011;47573;43.832;5.974;2023-02-18T10:56:37;61.13;;;35.95;;
61673;SDS011;47573;43.832;5.974;2023-02-18T11:03:21;50.10;;;31.60;;
61673;SDS011;47573;43.832;5.974;2023-02-18T11:10:08;54.55;;;31.73;;
61673;SDS011;47573;43.832;5.974;2023-02-18T11:16:55;57.05;;;30.80;;
61673;SDS011;47573;43.832;5.974;2023-02-18T11:23:51;57.70;;;30.00;;
61673;SDS011;47573;43.832;5.974;2023-02-18T11:30:33;39.22;;;24.33;;
61673;SDS011;47573;43.832;5.974;2023-02-18T11:37:17;37.95;;;24.48;;
61673;SDS011;47573;43.832;5.974;2023-02-18T11:44:01;55.40;;;27.08;;
61673;SDS011;47573;43.832;5.974;2023-02-18T11:50:44;37.58;;;22.30;;
61673;SDS011;47573;43.832;5.974;2023-02-18T11:57:24;39.53;;;23.50;;
61673;SDS011;47573;43.832;5.974;2023-02-18T12:04:10;47.07;;;25.33;;
61673;SDS011;47573;43.832;5.974;2023-02-18T12:10:52;47.95;;;24.65;;
61673;SDS011;47573;43.832;5.974;2023-02-18T12:17:42;35.97;;;21.33;;
61673;SDS011;47573;43.832;5.974;2023-02-18T12:24:42;44.08;;;23.25;;
61673;SDS011;47573;43.832;5.974;2023-02-18T12:31:41;34.92;;;21.25;;
61673;SDS011;47573;43.832;5.974;2023-02-18T12:38:34;37.30;;;22.03;;
61673;SDS011;47573;43.832;5.974;2023-02-18T12:45:53;37.60;;;21.50;;
61673;SDS011;47573;43.832;5.974;2023-02-18T12:52:58;35.75;;;20.80;;
61673;SDS011;47573;43.832;5.974;2023-02-18T12:59:58;32.50;;;20.73;;
61673;SDS011;47573;43.832;5.974;2023-02-18T13:07:25;31.80;;;19.63;;
61673;SDS011;47573;43.832;5.974;2023-02-18T13:14:17;32.50;;;19.55;;
61673;SDS011;47573;43.832;5.974;2023-02-18T13:21:02;50.63;;;27.30;;
61673;SDS011;47573;43.832;5.974;2023-02-18T13:27:47;173.63;;;75.90;;
61673;SDS011;47573;43.832;5.974;2023-02-18T13:34:38;190.52;;;86.50;;
61673;SDS011;47573;43.832;5.974;2023-02-18T13:41:25;199.32;;;89.20;;
61673;SDS011;47573;43.832;5.974;2023-02-18T13:48:20;188.27;;;85.95;;
61673;SDS011;47573;43.832;5.974;2023-02-18T13:55:02;190.00;;;85.55;;
61673;SDS011;47573;43.832;5.974;2023-02-18T14:01:44;187.43;;;86.80;;
61673;SDS011;47573;43.832;5.974;2023-02-18T14:08:30;179.03;;;81.73;;
61673;SDS011;47573;43.832;5.974;2023-02-18T14:22:31;170.73;;;79.45;;
61673;SDS011;47573;43.832;5.974;2023-02-18T14:29:16;161.63;;;77.03;;
61673;SDS011;47573;43.832;5.974;2023-02-18T14:36:05;159.45;;;76.68;;
61673;SDS011;47573;43.832;5.974;2023-02-18T14:42:59;162.40;;;74.13;;
61673;SDS011;47573;43.832;5.974;2023-02-18T14:49:48;161.88;;;74.90;;
61673;SDS011;47573;43.832;5.974;2023-02-18T14:56:36;153.23;;;74.40;;
61673;SDS011;47573;43.832;5.974;2023-02-18T15:03:19;158.55;;;75.20;;
61673;SDS011;47573;43.832;5.974;2023-02-18T15:10:01;148.13;;;73.60;;
61673;SDS011;47573;43.832;5.974;2023-02-18T15:16:42;147.75;;;72.07;;
61673;SDS011;47573;43.832;5.974;2023-02-18T15:23:23;143.95;;;71.07;;
61673;SDS011;47573;43.832;5.974;2023-02-18T15:30:12;147.75;;;74.97;;
61673;SDS011;47573;43.832;5.974;2023-02-18T15:36:58;168.80;;;89.20;;
61673;SDS011;47573;43.832;5.974;2023-02-18T15:43:50;194.93;;;105.78;;
61673;SDS011;47573;43.832;5.974;2023-02-18T15:50:34;193.30;;;107.97;;
61673;SDS011;47573;43.832;5.974;2023-02-18T15:57:15;193.90;;;107.55;;
61673;SDS011;47573;43.832;5.974;2023-02-18T16:03:57;194.07;;;107.95;;
61673;SDS011;47573;43.832;5.974;2023-02-18T16:10:41;187.55;;;107.40;;
61673;SDS011;47573;43.832;5.974;2023-02-18T16:17:27;214.15;;;119.07;;
61673;SDS011;47573;43.832;5.974;2023-02-18T16:24:21;227.68;;;129.77;;
61673;SDS011;47573;43.832;5.974;2023-02-18T16:31:04;244.63;;;141.65;;
61673;SDS011;47573;43.832;5.974;2023-02-18T16:37:45;234.18;;;136.80;;
61673;SDS011;47573;43.832;5.974;2023-02-18T16:44:25;235.25;;;137.02;;
61673;SDS011;47573;43.832;5.974;2023-02-18T16:51:08;265.60;;;154.17;;
61673;SDS011;47573;43.832;5.974;2023-02-18T16:57:51;311.30;;;184.75;;
61673;SDS011;47573;43.832;5.974;2023-02-18T17:04:32;300.30;;;181.30;;
61673;SDS011;47573;43.832;5.974;2023-02-18T17:11:16;312.97;;;191.73;;
61673;SDS011;47573;43.832;5.974;2023-02-18T17:17:59;340.42;;;209.15;;
61673;SDS011;47573;43.832;5.974;2023-02-18T17:24:40;350.17;;;224.15;;
61673;SDS011;47573;43.832;5.974;2023-02-18T17:31:22;344.77;;;217.10;;
61673;SDS011;47573;43.832;5.974;2023-02-18T17:38:08;372.40;;;238.70;;
61673;SDS011;47573;43.832;5.974;2023-02-18T17:44:49;380.65;;;248.20;;
61673;SDS011;47573;43.832;5.974;2023-02-18T17:51:31;396.50;;;257.23;;
61673;SDS011;47573;43.832;5.974;2023-02-18T17:58:12;433.35;;;281.10;;
61673;SDS011;47573;43.832;5.974;2023-02-18T18:04:54;423.73;;;281.63;;
61673;SDS011;47573;43.832;5.974;2023-02-18T18:11:36;466.98;;;309.30;;
61673;SDS011;47573;43.832;5.974;2023-02-18T18:18:17;488.67;;;326.25;;
61673;SDS011;47573;43.832;5.974;2023-02-18T18:24:58;514.35;;;351.42;;
61673;SDS011;47573;43.832;5.974;2023-02-18T18:31:40;508.10;;;350.13;;
61673;SDS011;47573;43.832;5.974;2023-02-18T18:38:21;512.88;;;349.73;;
61673;SDS011;47573;43.832;5.974;2023-02-18T18:45:03;543.53;;;385.23;;
61673;SDS011;47573;43.832;5.974;2023-02-18T18:51:46;554.72;;;402.55;;
61673;SDS011;47573;43.832;5.974;2023-02-18T18:58:26;572.93;;;414.13;;
61673;SDS011;47573;43.832;5.974;2023-02-18T19:05:10;578.72;;;420.98;;
61673;SDS011;47573;43.832;5.974;2023-02-18T19:11:59;575.60;;;416.00;;
61673;SDS011;47573;43.832;5.974;2023-02-18T19:18:39;570.10;;;419.20;;
61673;SDS011;47573;43.832;5.974;2023-02-18T19:25:20;569.53;;;415.57;;
61673;SDS011;47573;43.832;5.974;2023-02-18T19:32:03;576.13;;;420.40;;
61673;SDS011;47573;43.832;5.974;2023-02-18T19:38:44;563.73;;;406.67;;
61673;SDS011;47573;43.832;5.974;2023-02-18T19:45:25;563.97;;;408.42;;
61673;SDS011;47573;43.832;5.974;2023-02-18T19:52:07;588.28;;;447.50;;
61673;SDS011;47573;43.832;5.974;2023-02-18T19:58:47;577.22;;;433.50;;
61673;SDS011;47573;43.832;5.974;2023-02-18T20:05:28;584.70;;;436.50;;
61673;SDS011;47573;43.832;5.974;2023-02-18T20:12:10;575.40;;;428.97;;
61673;SDS011;47573;43.832;5.974;2023-02-18T20:18:51;571.97;;;423.80;;
61673;SDS011;47573;43.832;5.974;2023-02-18T20:25:31;718.25;;;481.63;;
61673;SDS011;47573;43.832;5.974;2023-02-18T20:32:13;600.27;;;456.27;;
61673;SDS011;47573;43.832;5.974;2023-02-18T20:38:54;811.80;;;530.47;;
61673;SDS011;47573;43.832;5.974;2023-02-18T20:45:34;682.22;;;498.90;;
61673;SDS011;47573;43.832;5.974;2023-02-18T20:52:16;626.63;;;475.47;;
61673;SDS011;47573;43.832;5.974;2023-02-18T20:58:56;617.03;;;478.55;;
61673;SDS011;47573;43.832;5.974;2023-02-18T21:05:37;607.50;;;471.53;;
61673;SDS011;47573;43.832;5.974;2023-02-18T21:12:19;608.67;;;470.20;;
61673;SDS011;47573;43.832;5.974;2023-02-18T21:18:59;599.03;;;459.88;;
61673;SDS011;47573;43.832;5.974;2023-02-18T21:25:40;580.67;;;440.27;;
61673;SDS011;47573;43.832;5.974;2023-02-18T21:32:22;579.23;;;442.73;;
61673;SDS011;47573;43.832;5.974;2023-02-18T21:39:03;567.83;;;431.90;;
61673;SDS011;47573;43.832;5.974;2023-02-18T21:45:45;563.25;;;422.73;;
61673;SDS011;47573;43.832;5.974;2023-02-18T21:52:27;560.63;;;412.53;;
61673;SDS011;47573;43.832;5.974;2023-02-18T21:59:07;565.53;;;417.00;;
61673;SDS011;47573;43.832;5.974;2023-02-18T22:05:48;562.23;;;423.90;;
61673;SDS011;47573;43.832;5.974;2023-02-18T22:12:31;579.23;;;433.40;;
61673;SDS011;47573;43.832;5.974;2023-02-18T22:19:11;571.17;;;421.45;;
61673;SDS011;47573;43.832;5.974;2023-02-18T22:25:53;559.80;;;416.75;;
61673;SDS011;47573;43.832;5.974;2023-02-18T22:32:34;569.73;;;431.17;;
61673;SDS011;47573;43.832;5.974;2023-02-18T22:39:15;576.33;;;436.77;;
61673;SDS011;47573;43.832;5.974;2023-02-18T22:45:55;570.70;;;426.70;;
61673;SDS011;47573;43.832;5.974;2023-02-18T22:52:41;559.40;;;421.35;;
61673;SDS011;47573;43.832;5.974;2023-02-18T22:59:22;554.50;;;408.15;;
61673;SDS011;47573;43.832;5.974;2023-02-18T23:06:03;543.67;;;400.70;;
61673;SDS011;47573;43.832;5.974;2023-02-18T23:12:46;564.75;;;421.15;;
61673;SDS011;47573;43.832;5.974;2023-02-18T23:19:29;569.53;;;424.95;;
61673;SDS011;47573;43.832;5.974;2023-02-18T23:26:10;558.93;;;415.53;;
61673;SDS011;47573;43.832;5.974;2023-02-18T23:32:53;536.53;;;384.13;;
61673;SDS011;47573;43.832;5.974;2023-02-18T23:39:33;519.67;;;367.20;;
61673;SDS011;47573;43.832;5.974;2023-02-18T23:46:14;503.75;;;348.50;;
61673;SDS011;47573;43.832;5.974;2023-02-18T23:52:58;508.90;;;355.10;;
61673;SDS011;47573;43.832;5.974;2023-02-18T23:59:38;507.27;;;345.60;;
